Погода Нарушевона 2 недели

Мазовецкое воеводство, Польша

14 - 27 июля
  • 14июля
    Сегодня
    +15°
    +25°
    Ясно и безоблачно
    ВремяПогодаТемператураВлажностьДавлениеВетер, м/сВероятность осадков
    02:00Облачно с прояснениями+16°C84 %752 мм1.6 м/с2 %
    05:00Облачно с прояснениями+15°C86 %752 мм1.3 м/с10 %
    08:00Пасмурно, дождь+18°C75 %753 мм1.0 м/с51 %
    11:00Пасмурно, небольшой дождь+20°C66 %753 мм2.1 м/с52 %
    14:00Ясно и безоблачно+23°C52 %753 мм2.3 м/с9 %
    17:00Ясно и безоблачно+25°C50 %752 мм1.8 м/с2 %
    20:00Облачно с прояснениями+23°C71 %752 мм0.8 м/с2 %
    23:00Облачно с прояснениями+18°C79 %753 мм1.5 м/с2 %
  • 15июля
    Понедельник
    +17°
    +29°
    Ясно и безоблачно
    ВремяПогодаТемператураВлажностьДавлениеВетер, м/сВероятность осадков
    02:00Облачно с прояснениями+17°C83 %753 мм1.4 м/с2 %
    05:00Небольшая облачность+16°C92 %753 мм1.5 м/с1 %
    08:00Практически безоблачно+21°C73 %754 мм2.1 м/с3 %
    11:00Практически безоблачно+25°C57 %753 мм3.3 м/с12 %
    14:00Ясно и безоблачно+28°C42 %753 мм2.6 м/с13 %
    17:00Ясно и безоблачно+28°C38 %752 мм1.8 м/с4 %
    20:00Ясно и безоблачно+26°C46 %752 мм0.4 м/с1 %
    23:00Небольшая облачность+20°C68 %753 мм2.1 м/с2 %
  • 16июля
    Вторник
    +18°
    +33°
    Небольшая облачность
    ВремяПогодаТемператураВлажностьДавлениеВетер, м/сВероятность осадков
    02:00Практически безоблачно+18°C76 %753 мм2.1 м/с2 %
    05:00Ясно и безоблачно+17°C84 %752 мм2.0 м/с2 %
    08:00Ясно и безоблачно+23°C67 %752 мм3.0 м/с2 %
    11:00Практически безоблачно+28°C47 %752 мм4.8 м/с2 %
    14:00Небольшая облачность+31°C45 %751 мм4.5 м/с5 %
    17:00Небольшая облачность, возможен дождь с грозой+32°C52 %749 мм3.5 м/с38 %
    20:00Небольшая облачность, возможен дождь с грозой+25°C90 %751 мм4.4 м/с65 %
    23:00Облачно с прояснениями+21°C94 %750 мм2.8 м/с45 %
  • 17июля
    Среда
    +15°
    +28°
    Ясно и безоблачно
    ВремяПогодаТемператураВлажностьДавлениеВетер, м/сВероятность осадков
    02:00Облачно с прояснениями+21°C93 %751 мм2.9 м/с33 %
    05:00Ясно и безоблачно+19°C95 %752 мм3.1 м/с16 %
    08:00Ясно и безоблачно+21°C85 %754 мм4.0 м/с8 %
    11:00Ясно и безоблачно+25°C63 %755 мм4.1 м/с6 %
    14:00Ясно и безоблачно+27°C49 %755 мм4.5 м/с8 %
    17:00Ясно и безоблачно+27°C45 %755 мм4.2 м/с2 %
    20:00Ясно и безоблачно+25°C60 %755 мм1.9 м/с2 %
    23:00Облачно с прояснениями+20°C66 %756 мм2.0 м/с5 %
  • 18июля
    Четверг
    +18°
    +29°
    Практически безоблачно
    ВремяПогодаТемператураВлажностьДавлениеВетер, м/сВероятность осадков
    02:00Облачно с прояснениями+18°C80 %756 мм1.7 м/с6 %
    05:00Ясно и безоблачно+16°C87 %756 мм1.5 м/с7 %
    08:00Ясно и безоблачно+22°C72 %757 мм1.9 м/с4 %
    11:00Ясно и безоблачно+26°C52 %757 мм2.0 м/с17 %
    14:00Практически безоблачно+28°C45 %756 мм3.9 м/с20 %
    17:00Ясно и безоблачно+29°C45 %756 мм3.5 м/с10 %
    20:00Ясно и безоблачно+25°C58 %756 мм2.6 м/с4 %
    23:00Ясно и безоблачно+20°C71 %756 мм1.9 м/с2 %
Мы используем cookies
Соглашаюсь